createdAt,value
2019-04-07T00:00:40.998Z,97687.22
2019-04-07T00:03:13.826Z,97686.36
2019-04-07T00:05:43.031Z,97684.20
2019-04-07T00:08:16.897Z,97686.34
2019-04-07T00:10:46.765Z,97679.39
2019-04-07T00:13:16.110Z,97685.21
2019-04-07T00:15:45.245Z,97680.45
2019-04-07T00:18:15.452Z,97689.22
2019-04-07T00:20:44.713Z,97683.29
2019-04-07T00:23:14.135Z,97689.39
2019-04-07T00:25:44.318Z,97681.80
2019-04-07T00:28:13.491Z,97685.77
2019-04-07T00:30:42.616Z,97685.78
2019-04-07T00:33:11.686Z,97689.75
2019-04-07T00:35:40.801Z,97687.81
2019-04-07T00:38:09.873Z,97692.75
2019-04-07T00:40:39.175Z,97692.73
2019-04-07T00:43:08.791Z,97686.92
2019-04-07T00:45:37.981Z,97693.75
2019-04-07T00:48:08.200Z,97689.39
2019-04-07T00:50:37.242Z,97685.12
2019-04-07T00:53:06.552Z,97701.63
2019-04-07T00:55:35.933Z,97690.00
2019-04-07T00:58:05.045Z,97691.98
2019-04-07T01:00:35.703Z,97691.25
2019-04-07T01:03:04.803Z,97693.89
2019-04-07T01:05:38.522Z,97691.85
2019-04-07T01:08:05.407Z,97692.57
2019-04-07T01:10:34.815Z,97690.83
2019-04-07T01:13:04.541Z,97681.88
2019-04-07T01:15:35.205Z,97688.94
2019-04-07T01:18:04.372Z,97685.56
2019-04-07T01:20:33.983Z,97689.89
2019-04-07T01:23:03.064Z,97687.10
2019-04-07T01:25:32.092Z,97688.64
2019-04-07T01:28:01.126Z,97687.31
2019-04-07T01:30:30.424Z,97689.27
2019-04-07T01:33:00.032Z,97691.28
2019-04-07T01:35:30.355Z,97688.55
2019-04-07T01:38:01.532Z,97684.67
2019-04-07T01:40:31.081Z,97685.72
2019-04-07T01:43:17.501Z,97691.22
2019-04-07T01:46:05.518Z,97683.11
2019-04-07T01:48:53.210Z,97679.80
2019-04-07T01:51:41.312Z,97680.31
2019-04-07T01:54:28.350Z,97683.44
2019-04-07T01:57:15.620Z,97682.51
2019-04-07T02:00:07.188Z,97683.59
2019-04-07T02:02:58.286Z,97673.88
2019-04-07T02:05:57.174Z,97683.66
2019-04-07T02:08:33.835Z,97691.58
2019-04-07T02:11:23.229Z,97692.27
2019-04-07T02:14:30.275Z,97700.27
2019-04-07T02:17:11.952Z,97708.80
2019-04-07T02:19:46.009Z,97711.19
2019-04-07T02:22:32.759Z,97713.97
2019-04-07T02:25:27.229Z,97711.62
2019-04-07T02:28:13.816Z,97715.84
2019-04-07T02:31:08.115Z,97710.80
2019-04-07T02:33:42.538Z,97717.12
2019-04-07T02:36:31.863Z,97711.98
2019-04-07T02:39:09.141Z,97717.39
2019-04-07T02:41:49.295Z,97718.55
2019-04-07T02:44:37.484Z,97712.91
2019-04-07T02:47:28.515Z,97720.80
2019-04-07T02:50:19.579Z,97714.61
2019-04-07T02:53:05.795Z,97718.28
2019-04-07T02:56:09.963Z,97714.99
2019-04-07T02:59:04.652Z,97719.14
2019-04-07T03:01:52.726Z,97715.81
2019-04-07T03:04:44.426Z,97710.19
2019-04-07T03:07:22.190Z,97714.14
2019-04-07T03:10:09.014Z,97714.59
2019-04-07T03:12:55.662Z,97719.55
2019-04-07T03:15:54.578Z,97712.02
2019-04-07T03:18:46.264Z,97713.59
2019-04-07T03:21:22.856Z,97714.27
2019-04-07T03:24:11.221Z,97707.91
2019-04-07T03:26:59.461Z,97712.14
2019-04-07T03:29:47.173Z,97711.14
2019-04-07T03:32:32.439Z,97714.70
2019-04-07T03:35:25.655Z,97717.63
2019-04-07T03:38:08.964Z,97718.30
2019-04-07T03:40:51.635Z,97702.30
2019-04-07T03:43:59.143Z,97706.84
2019-04-07T03:46:43.095Z,97711.64
2019-04-07T03:49:29.792Z,97706.32
2019-04-07T03:52:11.843Z,97706.69
2019-04-07T03:54:58.889Z,97711.61
2019-04-07T03:57:41.601Z,97708.77
2019-04-07T04:00:56.284Z,97714.56
2019-04-07T04:03:38.597Z,97707.73
2019-04-07T04:06:26.768Z,97715.42
2019-04-07T04:09:15.469Z,97711.94
2019-04-07T04:11:56.895Z,97714.72
2019-04-07T04:14:31.125Z,97710.41
2019-04-07T04:17:02.041Z,97713.30
2019-04-07T04:19:31.301Z,97717.67
2019-04-07T04:22:00.659Z,97727.23
2019-04-07T04:24:30.361Z,97721.48
2019-04-07T04:26:59.457Z,97716.55
2019-04-07T04:29:29.887Z,97718.69
2019-04-07T04:31:59.751Z,97724.34
2019-04-07T04:34:28.917Z,97728.93
2019-04-07T04:36:57.988Z,97730.22
2019-04-07T04:39:27.257Z,97737.06
2019-04-07T04:41:56.363Z,97729.80
2019-04-07T04:44:25.707Z,97733.37
2019-04-07T04:46:54.885Z,97742.00
2019-04-07T04:49:24.017Z,97733.28
2019-04-07T04:51:54.021Z,97746.18
2019-04-07T04:54:23.293Z,97748.55
2019-04-07T04:56:52.410Z,97755.53
2019-04-07T04:59:21.700Z,97757.77
2019-04-07T05:01:51.270Z,97750.13
2019-04-07T05:04:20.735Z,97752.53
2019-04-07T05:06:50.008Z,97756.49
2019-04-07T05:09:20.098Z,97759.80
2019-04-07T05:11:49.659Z,97758.34
2019-04-07T05:14:18.787Z,97761.73
2019-04-07T05:16:48.109Z,97769.05
2019-04-07T05:19:17.227Z,97773.00
2019-04-07T05:21:46.978Z,97774.66
2019-04-07T05:24:16.915Z,97772.53
2019-04-07T05:26:46.479Z,97771.44
2019-04-07T05:29:15.907Z,97770.12
2019-04-07T05:31:45.888Z,97775.92
2019-04-07T05:34:20.398Z,97777.25
2019-04-07T05:36:58.773Z,97773.03
2019-04-07T05:39:29.551Z,97774.72
2019-04-07T05:41:59.213Z,97776.88
2019-04-07T05:44:29.597Z,97785.36
2019-04-07T05:46:58.759Z,97789.08
2019-04-07T05:49:28.203Z,97788.13
2019-04-07T05:51:59.621Z,97791.98
2019-04-07T05:54:28.643Z,97795.08
2019-04-07T05:57:01.175Z,97796.94
2019-04-07T05:59:28.799Z,97801.13
2019-04-07T06:02:00.771Z,97804.79
2019-04-07T06:04:29.154Z,97808.55
2019-04-07T06:06:58.322Z,97800.97
2019-04-07T06:09:32.826Z,97804.12
2019-04-07T06:12:01.095Z,97803.22
2019-04-07T06:14:32.326Z,97806.41
2019-04-07T06:17:02.098Z,97805.91
2019-04-07T06:19:40.541Z,97806.07
2019-04-07T06:22:07.837Z,97802.64
2019-04-07T06:24:38.160Z,97799.50
2019-04-07T06:27:07.456Z,97805.59
2019-04-07T06:29:36.665Z,97808.42
2019-04-07T06:32:09.132Z,97811.13
2019-04-07T06:34:39.759Z,97802.53
2019-04-07T06:37:07.740Z,97805.52
2019-04-07T06:39:39.009Z,97800.88
2019-04-07T06:42:08.540Z,97797.91
2019-04-07T06:44:38.425Z,97803.22
2019-04-07T06:47:26.515Z,97804.38
2019-04-07T06:50:05.349Z,97808.33
2019-04-07T06:53:05.458Z,97810.66
2019-04-07T06:55:59.137Z,97813.98
2019-04-07T06:58:32.026Z,97809.32
2019-04-07T07:01:19.056Z,97808.02
2019-04-07T07:04:09.634Z,97810.66
2019-04-07T07:06:58.942Z,97813.80
2019-04-07T07:10:00.144Z,97811.83
2019-04-07T07:12:43.957Z,97817.42
2019-04-07T07:15:20.932Z,97822.75
2019-04-07T07:18:21.257Z,97821.54
2019-04-07T07:21:14.447Z,97823.87
2019-04-07T07:23:47.051Z,97827.33
2019-04-07T07:26:16.001Z,97832.48
2019-04-07T07:28:45.790Z,97833.12
2019-04-07T07:31:15.488Z,97830.83
2019-04-07T07:33:44.874Z,97826.84
2019-04-07T07:36:18.362Z,97827.13
2019-04-07T07:38:57.569Z,97822.05
2019-04-07T07:41:20.653Z,97828.08
2019-04-07T07:43:48.984Z,97836.81
2019-04-07T07:46:20.756Z,97836.56
2019-04-07T07:48:50.097Z,97841.33
2019-04-07T07:51:21.440Z,97848.91
2019-04-07T07:53:57.174Z,97838.52
2019-04-07T07:56:25.561Z,97844.77
2019-04-07T07:58:56.107Z,97847.23
2019-04-07T08:01:27.586Z,97851.92
2019-04-07T08:03:56.858Z,97855.47
2019-04-07T08:06:26.667Z,97854.56
2019-04-07T08:09:07.400Z,97860.56
2019-04-07T08:11:30.809Z,97862.59
2019-04-07T08:13:58.683Z,97860.02
2019-04-07T08:16:31.222Z,97862.20
2019-04-07T08:19:01.300Z,97860.88
2019-04-07T08:21:32.705Z,97861.95
2019-04-07T08:24:02.547Z,97862.80
2019-04-07T08:26:33.643Z,97865.23
2019-04-07T08:29:05.622Z,97859.80
2019-04-07T08:31:37.273Z,97860.24
2019-04-07T08:34:06.545Z,97857.98
2019-04-07T08:36:35.627Z,97860.63
2019-04-07T08:39:18.420Z,97863.52
2019-04-07T08:41:41.175Z,97861.81
2019-04-07T08:44:09.460Z,97860.53
2019-04-07T08:46:41.668Z,97858.61
2019-04-07T08:49:11.518Z,97857.29
2019-04-07T08:51:43.781Z,97863.22
2019-04-07T08:54:15.743Z,97860.13
2019-04-07T08:56:46.859Z,97854.73
2019-04-07T08:59:18.274Z,97866.56
2019-04-07T09:01:58.627Z,97867.23
2019-04-07T09:04:29.487Z,97864.30
2019-04-07T09:07:16.450Z,97867.94
2019-04-07T09:10:17.047Z,97874.91
2019-04-07T09:12:49.938Z,97872.45
2019-04-07T09:15:28.638Z,97875.78
2019-04-07T09:18:07.122Z,97874.22
2019-04-07T09:20:48.410Z,97871.59
2019-04-07T09:23:29.722Z,97869.59
2019-04-07T09:26:22.590Z,97873.54
2019-04-07T09:29:26.056Z,97871.72
2019-04-07T09:36:09.181Z,97878.55
2019-04-07T09:39:50.810Z,97879.03
2019-04-07T09:42:24.375Z,97879.88
2019-04-07T09:45:26.468Z,97875.44
2019-04-07T09:48:17.734Z,97879.87
2019-04-07T09:51:13.596Z,97877.38
2019-04-07T09:53:50.726Z,97881.34
2019-04-07T09:56:40.654Z,97880.39
2019-04-07T09:59:29.679Z,97877.74
2019-04-07T10:02:18.479Z,97881.13
2019-04-07T10:05:05.481Z,97883.72
2019-04-07T10:07:46.846Z,97879.89
2019-04-07T10:10:38.313Z,97875.41
2019-04-07T10:13:51.183Z,97881.51
2019-04-07T10:16:54.967Z,97884.19
2019-04-07T10:20:14.492Z,97887.25
2019-04-07T10:22:54.174Z,97888.92
2019-04-07T10:25:31.324Z,97895.75
2019-04-07T10:28:22.390Z,97895.63
2019-04-07T10:31:03.418Z,97901.32
2019-04-07T10:33:50.482Z,97886.41
2019-04-07T10:37:01.565Z,97900.38
2019-04-07T10:39:37.082Z,97898.69
2019-04-07T10:42:15.168Z,97898.03
2019-04-07T10:45:03.579Z,97895.07
2019-04-07T10:47:48.829Z,97891.03
2019-04-07T10:50:25.695Z,97897.61
2019-04-07T10:53:16.004Z,97895.89
2019-04-07T10:55:52.133Z,97892.92
2019-04-07T10:58:47.200Z,97887.36
2019-04-07T11:01:29.718Z,97894.98
2019-04-07T11:04:36.030Z,97881.87
2019-04-07T11:07:24.949Z,97885.86
2019-04-07T11:10:03.650Z,97884.99
2019-04-07T11:13:06.174Z,97884.06
2019-04-07T11:15:52.966Z,97882.50
2019-04-07T11:18:47.609Z,97883.09
2019-04-07T11:21:39.259Z,97878.17
2019-04-07T11:24:44.014Z,97880.63
2019-04-07T11:27:45.087Z,97875.94
2019-04-07T11:30:19.973Z,97877.97
2019-04-07T11:33:17.111Z,97882.29
2019-04-07T11:36:06.006Z,97883.25
2019-04-07T11:38:45.225Z,97883.97
2019-04-07T11:41:29.342Z,97887.00
2019-04-07T11:44:22.895Z,97880.72
2019-04-07T11:47:20.693Z,97880.89
2019-04-07T11:50:12.484Z,97875.08
2019-04-07T11:53:07.574Z,97881.94
2019-04-07T11:56:10.193Z,97875.86
2019-04-07T11:59:15.242Z,97880.32
2019-04-07T12:01:59.774Z,97877.76
2019-04-07T12:05:01.093Z,97878.12
2019-04-07T12:07:57.194Z,97879.28
2019-04-07T12:10:37.712Z,97877.52
2019-04-07T12:13:16.877Z,97881.08
2019-04-07T12:16:03.735Z,97879.64
2019-04-07T12:18:53.159Z,97855.97
2019-04-07T12:21:45.029Z,97878.25
2019-04-07T12:24:30.793Z,97880.06
2019-04-07T12:27:22.400Z,97875.95
2019-04-07T12:30:02.385Z,97875.94
2019-04-07T12:32:37.755Z,97878.72
2019-04-07T12:35:33.024Z,97876.70
2019-04-07T12:38:23.001Z,97875.05
2019-04-07T12:41:14.351Z,97873.00
2019-04-07T12:43:50.794Z,97870.20
2019-04-07T12:46:38.741Z,97872.59
2019-04-07T12:49:17.231Z,97872.30
2019-04-07T12:52:19.513Z,97870.13
2019-04-07T12:55:18.015Z,97872.20
2019-04-07T12:58:09.762Z,97857.95
2019-04-07T13:00:54.430Z,97871.44
2019-04-07T13:03:34.391Z,97867.22
2019-04-07T13:06:25.229Z,97860.85
2019-04-07T13:09:16.388Z,97862.31
2019-04-07T13:11:57.091Z,97865.34
2019-04-07T13:14:44.054Z,97860.08
2019-04-07T13:17:35.837Z,97858.75
2019-04-07T13:20:21.084Z,97865.98
2019-04-07T13:22:58.761Z,97860.22
2019-04-07T13:25:45.355Z,97863.44
2019-04-07T13:28:19.372Z,97858.75
2019-04-07T13:31:06.649Z,97862.47
2019-04-07T13:33:45.817Z,97866.80
2019-04-07T13:36:31.345Z,97865.61
2019-04-07T13:39:12.118Z,97864.70
2019-04-07T13:41:55.391Z,97865.68
2019-04-07T13:44:45.969Z,97865.76
2019-04-07T13:47:33.006Z,97869.53
2019-04-07T13:50:29.982Z,97870.20
2019-04-07T13:53:06.696Z,97871.44
2019-04-07T13:55:56.038Z,97870.90
2019-04-07T13:58:37.672Z,97879.50
2019-04-07T14:01:18.109Z,97876.50
2019-04-07T14:04:03.527Z,97872.91
2019-04-07T14:06:38.074Z,97879.61
2019-04-07T14:09:35.329Z,97876.70
2019-04-07T14:12:32.558Z,97883.52
2019-04-07T14:15:14.385Z,97879.45
2019-04-07T14:17:52.542Z,97878.89
2019-04-07T14:20:40.343Z,97881.47
2019-04-07T14:23:31.288Z,97878.28
2019-04-07T14:26:18.960Z,97884.31
2019-04-07T14:28:58.878Z,97879.11
2019-04-07T14:31:45.564Z,97881.53
2019-04-07T14:34:40.247Z,97881.87
2019-04-07T14:37:20.408Z,97882.23
2019-04-07T14:39:56.648Z,97890.88
2019-04-07T14:42:41.790Z,97891.83
2019-04-07T14:45:17.222Z,97884.31
2019-04-07T14:48:17.445Z,97889.00
2019-04-07T14:51:11.651Z,97890.73
2019-04-07T14:54:02.973Z,97892.57
2019-04-07T14:56:55.354Z,97894.55
2019-04-07T14:59:42.842Z,97896.59
2019-04-07T15:02:12.741Z,97891.13
2019-04-07T15:04:54.343Z,97894.88
2019-04-07T15:07:42.393Z,97890.98
2019-04-07T15:10:19.283Z,97901.98
2019-04-07T15:12:55.701Z,97907.42
2019-04-07T15:15:25.238Z,97902.17
2019-04-07T15:17:54.447Z,97905.78
2019-04-07T15:20:25.069Z,97907.54
2019-04-07T15:22:54.230Z,97914.77
2019-04-07T15:25:23.336Z,97913.20
2019-04-07T15:27:55.759Z,97915.39
2019-04-07T15:30:24.238Z,97914.84
2019-04-07T15:32:57.795Z,97924.23
2019-04-07T15:35:26.483Z,97924.14
2019-04-07T15:37:59.163Z,97927.45
2019-04-07T15:40:28.290Z,97928.65
2019-04-07T15:43:01.478Z,97923.22
2019-04-07T15:45:28.725Z,97929.08
2019-04-07T15:48:00.633Z,97927.83
2019-04-07T15:50:30.466Z,97923.17
2019-04-07T15:53:01.526Z,97924.80
2019-04-07T15:55:43.954Z,97923.48
2019-04-07T15:58:03.111Z,97925.97
2019-04-07T16:00:34.744Z,97932.92
2019-04-07T16:03:02.923Z,97930.41
2019-04-07T16:05:38.415Z,97935.45
2019-04-07T16:08:04.803Z,97934.63
2019-04-07T16:10:34.810Z,97935.52
2019-04-07T16:13:04.678Z,97938.40
2019-04-07T16:15:35.039Z,97939.37
2019-04-07T16:18:07.302Z,97936.88
2019-04-07T16:20:40.282Z,97937.53
2019-04-07T16:23:08.294Z,97933.52
2019-04-07T16:25:39.551Z,97932.38
2019-04-07T16:28:13.131Z,97940.88
2019-04-07T16:30:40.840Z,97948.42
2019-04-07T16:33:10.090Z,97949.09
2019-04-07T16:35:39.820Z,97951.09
2019-04-07T16:38:10.892Z,97951.88
2019-04-07T16:40:41.318Z,97954.93
2019-04-07T16:43:16.127Z,97951.35
2019-04-07T16:45:44.947Z,97962.53
2019-04-07T16:48:17.375Z,97961.13
2019-04-07T16:50:51.109Z,97972.39
2019-04-07T16:53:20.563Z,97964.78
2019-04-07T16:55:53.738Z,97964.54
2019-04-07T16:58:22.863Z,97968.72
2019-04-07T17:00:53.654Z,97980.21
2019-04-07T17:03:23.638Z,97980.83
2019-04-07T17:05:57.505Z,97982.22
2019-04-07T17:08:26.692Z,97982.64
2019-04-07T17:10:56.072Z,97986.97
2019-04-07T17:13:34.804Z,97984.83
2019-04-07T17:15:57.895Z,97989.52
2019-04-07T17:18:39.094Z,97987.50
2019-04-07T17:21:14.016Z,97991.45
2019-04-07T17:23:45.876Z,98000.32
2019-04-07T17:26:16.104Z,97988.30
2019-04-07T17:28:50.011Z,97994.66
2019-04-07T17:31:21.760Z,98002.94
2019-04-07T17:33:51.255Z,98004.52
2019-04-07T17:36:22.799Z,97996.90
2019-04-07T17:39:11.555Z,98002.34
2019-04-07T17:41:42.144Z,97999.08
2019-04-07T17:44:35.150Z,98010.45
2019-04-07T17:47:39.344Z,98010.08
2019-04-07T17:50:33.779Z,98008.31
2019-04-07T17:53:25.328Z,98012.06
2019-04-07T17:56:14.750Z,98017.22
2019-04-07T17:59:13.056Z,98022.31
2019-04-07T18:01:56.398Z,98025.05
2019-04-07T18:04:53.900Z,98028.11
2019-04-07T18:07:42.805Z,98031.25
2019-04-07T18:10:29.748Z,98031.43
2019-04-07T18:13:12.448Z,98037.70
2019-04-07T18:15:59.883Z,98039.08
2019-04-07T18:18:44.351Z,98042.18
2019-04-07T18:21:33.517Z,98045.66
2019-04-07T18:24:23.066Z,98046.98
2019-04-07T18:27:11.002Z,98055.17
2019-04-07T18:30:00.622Z,98058.44
2019-04-07T18:32:41.779Z,98060.91
2019-04-07T18:35:33.125Z,98065.18
2019-04-07T18:38:18.463Z,98072.34
2019-04-07T18:41:12.930Z,98077.95
2019-04-07T18:44:04.581Z,98081.69
2019-04-07T18:46:42.227Z,98088.90
2019-04-07T18:49:36.584Z,98089.34
2019-04-07T18:52:13.590Z,98091.71
2019-04-07T18:55:16.584Z,98096.45
2019-04-07T18:57:58.480Z,98102.13
2019-04-07T19:00:50.680Z,98108.17
2019-04-07T19:03:38.552Z,98118.80
2019-04-07T19:06:25.867Z,98119.17
2019-04-07T19:09:01.423Z,98125.36
2019-04-07T19:12:06.513Z,98133.86
2019-04-07T19:14:56.188Z,98136.35
2019-04-07T19:17:28.116Z,98140.34
2019-04-07T19:20:30.431Z,98132.69
2019-04-07T19:23:10.999Z,98132.69
2019-04-07T19:25:57.736Z,98129.73
2019-04-07T19:28:51.863Z,98127.58
2019-04-07T19:31:43.778Z,98124.59
2019-04-07T19:34:47.267Z,98130.91
2019-04-07T19:37:28.306Z,98136.05
2019-04-07T19:40:19.039Z,98144.20
2019-04-07T19:43:05.923Z,98141.87
2019-04-07T19:45:52.565Z,98146.98
2019-04-07T19:48:42.376Z,98151.82
2019-04-07T19:51:16.504Z,98150.28
2019-04-07T19:54:07.937Z,98152.41
2019-04-07T19:57:22.376Z,98159.34
2019-04-07T20:00:26.141Z,98160.40
2019-04-07T20:03:22.163Z,98158.22
2019-04-07T20:06:29.817Z,98169.52
2019-04-07T20:09:17.134Z,98162.05
2019-04-07T20:12:00.533Z,98163.83
2019-04-07T20:15:01.931Z,98164.70
2019-04-07T20:17:53.387Z,98166.52
2019-04-07T20:20:40.587Z,98163.70
2019-04-07T20:23:34.205Z,98159.83
2019-04-07T20:26:22.554Z,98159.88
2019-04-07T20:29:05.174Z,98157.20
2019-04-07T20:31:57.340Z,98157.20
2019-04-07T20:34:45.701Z,98157.22
2019-04-07T20:37:35.505Z,98153.23
2019-04-07T20:40:44.303Z,98148.73
2019-04-07T20:43:35.156Z,98152.09
2019-04-07T20:46:31.991Z,98156.68
2019-04-07T20:49:23.224Z,98159.02
2019-04-07T20:52:25.363Z,98151.41
2019-04-07T20:55:08.482Z,98157.91
2019-04-07T20:58:17.298Z,98168.38
2019-04-07T21:01:00.556Z,98162.21
2019-04-07T21:03:51.629Z,98164.06
2019-04-07T21:06:40.579Z,98160.08
2019-04-07T21:09:31.632Z,98165.88
2019-04-07T21:12:23.230Z,98165.88
2019-04-07T21:15:04.487Z,98163.39
2019-04-07T21:17:46.354Z,98160.44
2019-04-07T21:20:30.611Z,98158.58
2019-04-07T21:23:19.915Z,98166.08
2019-04-07T21:26:08.492Z,98168.41
2019-04-07T21:28:59.361Z,98166.91
2019-04-07T21:31:46.766Z,98163.22
2019-04-07T21:34:38.657Z,98168.90
2019-04-07T21:37:23.053Z,98169.94
2019-04-07T21:40:04.110Z,98175.76
2019-04-07T21:42:54.840Z,98174.91
2019-04-07T21:45:40.655Z,98175.09
2019-04-07T21:48:22.580Z,98179.23
2019-04-07T21:51:15.401Z,98175.56
2019-04-07T21:53:53.011Z,98177.75
2019-04-07T21:56:46.013Z,98174.44
2019-04-07T21:59:39.636Z,98179.73
2019-04-07T22:02:15.352Z,98180.57
2019-04-07T22:04:54.629Z,98181.23
2019-04-07T22:07:46.737Z,98177.42
2019-04-07T22:10:18.761Z,98185.05
2019-04-07T22:12:47.769Z,98186.21
2019-04-07T22:15:17.297Z,98183.56
2019-04-07T22:17:47.887Z,98188.06
2019-04-07T22:20:20.289Z,98188.53
2019-04-07T22:22:49.514Z,98191.19
2019-04-07T22:25:26.949Z,98194.69
2019-04-07T22:27:56.633Z,98191.19
2019-04-07T22:30:36.068Z,98197.34
2019-04-07T22:33:04.193Z,98194.16
2019-04-07T22:35:34.535Z,98192.17
2019-04-07T22:38:05.156Z,98200.34
2019-04-07T22:40:38.791Z,98196.67
2019-04-07T22:43:07.167Z,98197.66
2019-04-07T22:45:36.990Z,98201.30
2019-04-07T22:48:08.261Z,98200.63
2019-04-07T22:50:38.475Z,98194.84
2019-04-07T22:53:07.958Z,98193.84
2019-04-07T22:55:37.762Z,98198.30
2019-04-07T22:58:07.514Z,98202.80
2019-04-07T23:00:37.130Z,98201.13
2019-04-07T23:03:06.127Z,98195.94
2019-04-07T23:05:35.301Z,98203.75
2019-04-07T23:08:04.378Z,98202.08
2019-04-07T23:10:33.713Z,98197.92
2019-04-07T23:13:03.636Z,98201.71
2019-04-07T23:15:41.283Z,98204.37
2019-04-07T23:18:03.601Z,98202.05
2019-04-07T23:20:35.532Z,98202.38
2019-04-07T23:23:06.748Z,98197.53
2019-04-07T23:25:36.755Z,98201.66
2019-04-07T23:28:06.918Z,98203.29
2019-04-07T23:30:36.026Z,98207.49
2019-04-07T23:33:05.038Z,98201.19
2019-04-07T23:35:35.029Z,98206.34
2019-04-07T23:38:04.132Z,98201.50
2019-04-07T23:40:34.243Z,98197.64
2019-04-07T23:43:03.316Z,98199.78
2019-04-07T23:45:32.373Z,98198.23
2019-04-07T23:48:02.004Z,98207.30
2019-04-07T23:50:31.511Z,98211.13
2019-04-07T23:53:21.794Z,98215.38
2019-04-07T23:55:50.845Z,98217.76
2019-04-07T23:58:20.977Z,98219.34
